createdAt,value
2022-12-15T00:04:49.856Z,-1.00
2022-12-15T00:07:58.808Z,-1.10
2022-12-15T00:11:03.106Z,-1.10
2022-12-15T00:14:11.191Z,-1.10
2022-12-15T00:17:29.462Z,-1.00
2022-12-15T00:20:37.851Z,-1.10
2022-12-15T00:33:04.299Z,-1.10
2022-12-15T00:39:59.181Z,-1.10
2022-12-15T00:43:21.497Z,-1.10
2022-12-15T00:50:44.828Z,-1.10
2022-12-15T00:53:49.634Z,-1.20
2022-12-15T00:57:01.579Z,-1.20
2022-12-15T01:00:09.645Z,-1.20
2022-12-15T01:08:10.017Z,-1.40
2022-12-15T01:11:25.432Z,-1.50
2022-12-15T01:14:57.402Z,-1.50
2022-12-15T01:22:15.244Z,-1.50
2022-12-15T01:25:15.703Z,-1.50
2022-12-15T01:28:39.566Z,-1.50
2022-12-15T01:32:10.472Z,-1.50
2022-12-15T01:40:02.519Z,-1.50
2022-12-15T01:42:59.848Z,-1.60
2022-12-15T01:46:08.665Z,-1.60
2022-12-15T01:49:25.381Z,-1.60
2022-12-15T01:55:31.912Z,-1.70
2022-12-15T01:58:29.573Z,-1.70
2022-12-15T02:01:25.469Z,-1.80
2022-12-15T02:05:10.545Z,-1.80
2022-12-15T02:08:04.962Z,-1.90
2022-12-15T02:11:38.297Z,-2.00
2022-12-15T02:14:40.045Z,-2.00
2022-12-15T02:18:08.140Z,-2.00
2022-12-15T02:21:10.401Z,-2.10
2022-12-15T02:24:21.220Z,-2.10
2022-12-15T02:31:43.543Z,-2.20
2022-12-15T02:34:55.932Z,-2.20
2022-12-15T02:41:43.796Z,-2.20
2022-12-15T02:44:38.375Z,-2.30
2022-12-15T02:47:47.557Z,-2.30
2022-12-15T02:51:29.721Z,-2.30
2022-12-15T02:54:39.422Z,-2.40
2022-12-15T03:02:16.543Z,-2.50
2022-12-15T03:05:54.466Z,-2.50
2022-12-15T03:09:54.925Z,-2.60
2022-12-15T03:17:40.735Z,-2.70
2022-12-15T03:20:27.250Z,-2.80
2022-12-15T03:23:14.088Z,-2.80
2022-12-15T03:26:00.204Z,-2.80
2022-12-15T03:28:46.202Z,-2.80
2022-12-15T03:31:41.568Z,-2.80
2022-12-15T03:34:31.706Z,-2.80
2022-12-15T03:37:18.006Z,-2.90
2022-12-15T03:40:08.147Z,-2.90
2022-12-15T03:42:54.297Z,-2.90
2022-12-15T03:45:40.257Z,-3.00
2022-12-15T03:48:30.914Z,-3.00
2022-12-15T03:51:38.743Z,-3.10
2022-12-15T03:54:32.329Z,-3.10
2022-12-15T03:57:22.033Z,-3.10
2022-12-15T04:00:26.800Z,-3.10
2022-12-15T04:03:13.781Z,-3.00
2022-12-15T04:06:32.163Z,-3.00
2022-12-15T04:09:19.595Z,-3.00
2022-12-15T04:16:22.672Z,-3.10
2022-12-15T04:23:31.444Z,-3.20
2022-12-15T04:27:41.994Z,-3.30
2022-12-15T04:35:27.566Z,-3.50
2022-12-15T04:40:26.357Z,-3.60
2022-12-15T04:43:26.278Z,-3.60
2022-12-15T04:50:07.772Z,-3.70
2022-12-15T04:58:36.043Z,-3.80
2022-12-15T05:01:40.470Z,-3.80
2022-12-15T05:04:45.344Z,-3.80
2022-12-15T05:07:50.387Z,-3.80
2022-12-15T05:10:54.843Z,-3.80
2022-12-15T05:13:59.351Z,-3.60
2022-12-15T05:17:04.490Z,-3.60
2022-12-15T05:20:10.650Z,-3.80
2022-12-15T05:23:15.881Z,-3.90
2022-12-15T05:26:20.280Z,-3.90
2022-12-15T05:29:24.954Z,-3.90
2022-12-15T05:32:16.013Z,-3.70
2022-12-15T05:35:01.926Z,-3.60
2022-12-15T05:37:49.751Z,-4.00
2022-12-15T05:40:35.634Z,-4.00
2022-12-15T05:43:26.180Z,-4.00
2022-12-15T05:46:14.656Z,-4.00
2022-12-15T05:49:04.953Z,-4.10
2022-12-15T05:51:51.297Z,-3.80
2022-12-15T05:54:37.295Z,-4.20
2022-12-15T05:57:26.398Z,-4.20
2022-12-15T06:00:13.082Z,-4.30
2022-12-15T06:02:59.473Z,-4.30
2022-12-15T06:05:45.913Z,-4.40
2022-12-15T06:08:37.503Z,-4.50
2022-12-15T06:11:25.582Z,-4.50
2022-12-15T06:14:11.653Z,-4.40
2022-12-15T06:16:58.828Z,-4.40
2022-12-15T06:19:45.271Z,-4.40
2022-12-15T06:22:31.368Z,-4.10
2022-12-15T06:25:17.922Z,-4.40
2022-12-15T06:28:04.362Z,-4.50
2022-12-15T06:31:02.662Z,-4.50
2022-12-15T06:34:01.662Z,-4.50
2022-12-15T06:36:52.089Z,-4.50
2022-12-15T06:39:37.949Z,-4.50
2022-12-15T06:42:23.964Z,-4.50
2022-12-15T06:45:10.918Z,-4.10
2022-12-15T06:48:01.331Z,-4.60
2022-12-15T06:50:50.302Z,-4.60
2022-12-15T06:53:38.490Z,-4.60
2022-12-15T06:56:32.644Z,-4.60
2022-12-15T06:59:19.861Z,-4.60
2022-12-15T07:02:15.227Z,-4.20
2022-12-15T07:05:01.548Z,-4.60
2022-12-15T07:07:48.760Z,-4.60
2022-12-15T07:10:37.875Z,-4.10
2022-12-15T07:13:24.283Z,-4.70
2022-12-15T07:16:12.471Z,-4.80
2022-12-15T07:18:58.663Z,-4.70
2022-12-15T07:21:45.136Z,-4.80
2022-12-15T07:24:31.238Z,-4.70
2022-12-15T07:27:18.115Z,-4.50
2022-12-15T07:30:04.885Z,-4.70
2022-12-15T07:32:51.451Z,-4.70
2022-12-15T07:35:37.351Z,-4.70
2022-12-15T07:38:23.374Z,-4.50
2022-12-15T07:41:10.444Z,-4.80
2022-12-15T07:43:59.366Z,-4.60
2022-12-15T07:46:48.972Z,-4.90
2022-12-15T07:49:44.823Z,-4.90
2022-12-15T07:52:43.558Z,-5.00
2022-12-15T07:56:06.115Z,-4.40
2022-12-15T07:58:53.007Z,-5.00
2022-12-15T08:01:39.233Z,-5.00
2022-12-15T08:04:27.192Z,-5.10
2022-12-15T08:07:13.584Z,-5.10
2022-12-15T08:09:59.595Z,-5.10
2022-12-15T08:12:45.736Z,-5.10
2022-12-15T08:15:37.659Z,-4.60
2022-12-15T08:18:44.688Z,-5.00
2022-12-15T08:21:37.865Z,-5.00
2022-12-15T08:24:43.914Z,-5.00
2022-12-15T08:27:32.543Z,-5.00
2022-12-15T08:30:51.386Z,-4.90
2022-12-15T08:34:05.504Z,-4.80
2022-12-15T08:36:54.935Z,-4.90
2022-12-15T08:40:06.574Z,-4.90
2022-12-15T08:43:13.843Z,-4.80
2022-12-15T08:46:03.251Z,-4.80
2022-12-15T08:48:50.336Z,-4.80
2022-12-15T08:51:39.728Z,-4.80
2022-12-15T08:54:27.605Z,-4.80
2022-12-15T08:57:17.678Z,-4.80
2022-12-15T09:00:05.539Z,-4.80
2022-12-15T09:02:51.485Z,-4.60
2022-12-15T09:05:38.851Z,-4.60
2022-12-15T09:08:25.050Z,-4.60
2022-12-15T09:11:11.840Z,-4.50
2022-12-15T09:13:58.761Z,-4.50
2022-12-15T09:16:45.129Z,-3.90
2022-12-15T09:19:31.301Z,-4.40
2022-12-15T09:22:17.345Z,-4.40
2022-12-15T09:25:04.524Z,-4.40
2022-12-15T09:27:50.407Z,-3.90
2022-12-15T09:30:36.288Z,-4.30
2022-12-15T09:33:22.190Z,-4.30
2022-12-15T09:36:09.997Z,-4.20
2022-12-15T09:38:56.260Z,-4.20
2022-12-15T09:41:49.241Z,-4.10
2022-12-15T09:44:35.690Z,-3.70
2022-12-15T09:47:46.146Z,-3.90
2022-12-15T09:50:41.010Z,-3.80
2022-12-15T09:53:53.752Z,-3.70
2022-12-15T09:56:44.260Z,-3.70
2022-12-15T09:59:45.916Z,-3.40
2022-12-15T10:03:23.917Z,-3.50
2022-12-15T10:06:23.239Z,-3.30
2022-12-15T10:09:27.848Z,-3.30
2022-12-15T10:12:31.303Z,-3.00
2022-12-15T10:15:26.458Z,-2.90
2022-12-15T10:18:26.686Z,-2.80
2022-12-15T10:21:15.654Z,-2.70
2022-12-15T10:24:44.319Z,-2.30
2022-12-15T10:27:57.455Z,-2.50
2022-12-15T10:30:53.804Z,-2.40
2022-12-15T10:33:48.525Z,-2.30
2022-12-15T10:36:36.613Z,-2.20
2022-12-15T10:39:38.297Z,-2.10
2022-12-15T10:42:26.502Z,-2.00
2022-12-15T10:45:39.667Z,-1.90
2022-12-15T10:48:25.536Z,-1.70
2022-12-15T10:51:40.379Z,-1.70
2022-12-15T10:54:34.486Z,-1.60
2022-12-15T10:57:30.092Z,-1.50
2022-12-15T11:00:16.222Z,-1.40
2022-12-15T11:03:22.278Z,-1.40
2022-12-15T11:06:17.904Z,-1.30
2022-12-15T11:09:34.474Z,-1.20
2022-12-15T11:12:43.007Z,-1.10
2022-12-15T11:15:44.232Z,-1.10
2022-12-15T11:18:52.598Z,-1.00
2022-12-15T11:22:30.927Z,-0.90
2022-12-15T11:25:33.443Z,-0.90
2022-12-15T11:28:25.268Z,-0.80
2022-12-15T11:31:38.319Z,-0.80
2022-12-15T11:34:28.358Z,-0.70
2022-12-15T11:37:36.479Z,-0.70
2022-12-15T11:40:41.891Z,-0.60
2022-12-15T11:43:50.467Z,-0.60
2022-12-15T11:46:54.777Z,-0.50
2022-12-15T11:49:59.831Z,-0.50
2022-12-15T11:52:57.754Z,-0.40
2022-12-15T11:56:31.173Z,-0.40
2022-12-15T11:59:23.325Z,-0.30
2022-12-15T12:03:20.536Z,-0.30
2022-12-15T12:06:19.590Z,-0.30
2022-12-15T12:09:16.799Z,-0.20
2022-12-15T12:12:23.713Z,-0.10
2022-12-15T12:15:32.934Z,-0.10
2022-12-15T12:18:31.335Z,0.00
2022-12-15T12:21:27.649Z,0.00
2022-12-15T12:24:24.908Z,0.10
2022-12-15T12:27:36.796Z,0.20
2022-12-15T12:30:26.271Z,0.20
2022-12-15T12:33:37.097Z,0.30
2022-12-15T12:36:23.467Z,0.30
2022-12-15T12:39:23.605Z,0.30
2022-12-15T12:42:28.378Z,0.40
2022-12-15T12:45:15.079Z,0.50
2022-12-15T12:48:12.808Z,0.50
2022-12-15T12:51:32.454Z,0.50
2022-12-15T12:54:42.131Z,0.60
2022-12-15T12:57:40.837Z,0.60
2022-12-15T13:00:32.293Z,0.70
2022-12-15T13:03:21.179Z,0.70
2022-12-15T13:06:49.249Z,0.80
2022-12-15T13:09:38.467Z,0.80
2022-12-15T13:12:54.691Z,0.80
2022-12-15T13:15:45.711Z,0.90
2022-12-15T13:18:58.197Z,0.90
2022-12-15T13:21:53.535Z,1.00
2022-12-15T13:24:50.375Z,1.00
2022-12-15T13:27:38.098Z,1.10
2022-12-15T13:30:24.430Z,1.10
2022-12-15T13:33:17.486Z,1.20
2022-12-15T13:36:03.896Z,1.20
2022-12-15T13:38:59.119Z,1.30
2022-12-15T13:45:18.033Z,1.30
2022-12-15T13:48:31.398Z,1.40
2022-12-15T13:51:23.660Z,1.40
2022-12-15T13:54:17.241Z,1.50
2022-12-15T13:57:15.824Z,1.50
2022-12-15T14:00:07.569Z,1.50
2022-12-15T14:03:12.738Z,1.60
2022-12-15T14:06:00.365Z,1.60
2022-12-15T14:08:47.731Z,1.60
2022-12-15T14:11:52.363Z,1.60
2022-12-15T14:19:26.536Z,1.70
2022-12-15T14:22:29.756Z,1.80
2022-12-15T14:25:31.280Z,1.80
2022-12-15T14:28:34.170Z,1.90
2022-12-15T14:31:22.703Z,1.80
2022-12-15T14:34:23.621Z,1.80
2022-12-15T14:37:17.502Z,1.80
2022-12-15T14:40:03.837Z,1.80
2022-12-15T14:42:50.681Z,1.70
2022-12-15T14:45:37.526Z,1.70
2022-12-15T14:48:41.124Z,1.70
2022-12-15T14:51:45.894Z,1.60
2022-12-15T14:54:37.770Z,1.60
2022-12-15T14:57:25.928Z,1.50
2022-12-15T15:00:28.806Z,1.50
2022-12-15T15:03:18.294Z,1.40
2022-12-15T15:06:11.924Z,1.30
2022-12-15T15:09:23.888Z,1.30
2022-12-15T15:12:18.523Z,1.30
2022-12-15T15:15:07.992Z,1.20
2022-12-15T15:17:57.879Z,1.20
2022-12-15T15:20:52.284Z,1.10
2022-12-15T15:23:39.807Z,1.40
2022-12-15T15:26:26.675Z,1.00
2022-12-15T15:29:41.199Z,1.00
2022-12-15T15:32:27.601Z,0.90
2022-12-15T15:35:13.529Z,0.80
2022-12-15T15:38:05.571Z,0.80
2022-12-15T15:40:56.387Z,0.70
2022-12-15T15:43:43.526Z,0.70
2022-12-15T15:46:35.550Z,0.60
2022-12-15T15:49:23.440Z,0.60
2022-12-15T15:52:12.732Z,0.50
2022-12-15T15:54:59.659Z,0.40
2022-12-15T15:57:45.914Z,0.40
2022-12-15T16:00:32.219Z,0.30
2022-12-15T16:03:18.495Z,0.30
2022-12-15T16:06:06.755Z,0.20
2022-12-15T16:08:53.982Z,0.10
2022-12-15T16:11:40.372Z,0.10
2022-12-15T16:14:26.705Z,0.10
2022-12-15T16:17:13.080Z,0.20
2022-12-15T16:19:59.929Z,0.20
2022-12-15T16:22:51.030Z,0.30
2022-12-15T16:25:52.783Z,0.20
2022-12-15T16:28:38.972Z,0.20
2022-12-15T16:31:34.230Z,0.30
2022-12-15T16:34:25.731Z,0.20
2022-12-15T16:37:26.674Z,0.10
2022-12-15T16:40:25.204Z,0.10
2022-12-15T16:43:19.859Z,0.00
2022-12-15T16:46:06.619Z,-0.10
2022-12-15T16:48:52.682Z,-0.20
2022-12-15T16:51:45.547Z,-0.30
2022-12-15T16:54:32.193Z,-0.40
2022-12-15T16:57:18.573Z,-0.40
2022-12-15T17:00:18.570Z,-0.50
2022-12-15T17:03:07.218Z,-0.50
2022-12-15T17:05:55.689Z,-0.60
2022-12-15T17:08:54.442Z,-0.60
2022-12-15T17:11:57.075Z,-0.60
2022-12-15T17:14:43.032Z,-0.60
2022-12-15T17:17:31.093Z,-0.60
2022-12-15T17:20:28.934Z,-0.60
2022-12-15T17:23:19.303Z,-0.60
2022-12-15T17:26:25.800Z,-0.60
2022-12-15T17:29:21.984Z,-0.60
2022-12-15T17:32:12.734Z,-0.60
2022-12-15T17:34:58.818Z,-0.70
2022-12-15T17:37:45.436Z,-0.80
2022-12-15T17:40:31.391Z,-0.80
2022-12-15T17:43:19.807Z,-0.80
2022-12-15T17:46:11.531Z,-0.90
2022-12-15T17:48:58.165Z,-0.90
2022-12-15T17:51:44.937Z,-0.90
2022-12-15T17:54:30.810Z,-0.90
2022-12-15T17:57:17.062Z,-0.90
2022-12-15T18:00:11.851Z,-0.90
2022-12-15T18:02:59.426Z,-0.90
2022-12-15T18:05:47.903Z,-0.90
2022-12-15T18:08:34.698Z,-0.90
2022-12-15T18:11:20.916Z,-0.90
2022-12-15T18:14:14.646Z,-0.90
2022-12-15T18:17:00.862Z,-0.70
2022-12-15T18:19:46.716Z,-0.80
2022-12-15T18:22:32.639Z,-0.80
2022-12-15T18:25:20.548Z,-0.80
2022-12-15T18:28:19.544Z,-0.80
2022-12-15T18:31:25.959Z,-0.70
2022-12-15T18:34:21.984Z,-0.80
2022-12-15T18:37:19.343Z,-0.80
2022-12-15T18:40:06.291Z,-0.80
2022-12-15T18:42:54.226Z,-0.70
2022-12-15T18:45:40.332Z,-0.80
2022-12-15T18:48:35.331Z,-0.80
2022-12-15T18:51:24.717Z,-0.80
2022-12-15T18:54:24.443Z,-0.70
2022-12-15T18:57:31.858Z,-0.70
2022-12-15T19:00:21.338Z,-0.70
2022-12-15T19:03:08.329Z,-0.70
2022-12-15T19:05:59.953Z,-0.80
2022-12-15T19:08:46.160Z,-0.80
2022-12-15T19:11:32.642Z,-0.80
2022-12-15T19:14:39.221Z,-0.90
2022-12-15T19:17:44.231Z,-0.90
2022-12-15T19:20:48.859Z,-0.90
2022-12-15T19:23:35.064Z,-1.00
2022-12-15T19:26:21.163Z,-0.90
2022-12-15T19:29:22.491Z,-1.00
2022-12-15T19:32:08.955Z,-0.90
2022-12-15T19:34:55.211Z,-0.80
2022-12-15T19:37:47.663Z,-0.80
2022-12-15T19:40:35.625Z,-0.80
2022-12-15T19:43:23.389Z,-0.80
2022-12-15T19:46:17.741Z,-0.80
2022-12-15T19:49:04.316Z,-0.80
2022-12-15T19:51:50.474Z,-0.90
2022-12-15T19:54:36.610Z,-0.90
2022-12-15T19:57:22.580Z,-0.90
2022-12-15T20:00:24.824Z,-0.90
2022-12-15T20:03:10.688Z,-0.90
2022-12-15T20:05:59.088Z,-0.90
2022-12-15T20:08:47.974Z,-0.80
2022-12-15T20:11:34.438Z,-0.80
2022-12-15T20:14:21.115Z,-0.80
2022-12-15T20:17:07.938Z,-0.70
2022-12-15T20:19:53.800Z,-0.70
2022-12-15T20:22:41.261Z,-0.70
2022-12-15T20:25:30.469Z,-0.70
2022-12-15T20:28:24.163Z,-0.70
2022-12-15T20:31:15.350Z,-0.70
2022-12-15T20:34:01.537Z,-0.60
2022-12-15T20:36:47.466Z,-0.70
2022-12-15T20:39:34.506Z,-0.70
2022-12-15T20:42:23.082Z,-0.70
2022-12-15T20:45:12.739Z,-0.70
2022-12-15T20:47:59.218Z,-0.70
2022-12-15T20:50:48.437Z,-0.70
2022-12-15T20:53:35.106Z,-0.70
2022-12-15T20:56:23.216Z,-0.50
2022-12-15T20:59:09.929Z,-0.70
2022-12-15T21:01:56.521Z,-0.70
2022-12-15T21:04:47.638Z,-0.70
2022-12-15T21:07:35.284Z,-0.70
2022-12-15T21:10:23.060Z,-0.70
2022-12-15T21:13:19.593Z,-0.80
2022-12-15T21:16:06.553Z,-0.80
2022-12-15T21:22:03.055Z,-0.90
2022-12-15T21:24:57.154Z,-0.90
2022-12-15T21:27:42.884Z,-0.90
2022-12-15T21:30:28.955Z,-1.00
2022-12-15T21:33:15.444Z,-1.00
2022-12-15T21:36:01.678Z,-1.00
2022-12-15T21:38:50.799Z,-1.10
2022-12-15T21:41:41.257Z,-1.00
2022-12-15T21:44:28.020Z,-1.10
2022-12-15T21:47:48.800Z,-1.10
2022-12-15T21:50:36.606Z,-1.10
2022-12-15T21:53:22.943Z,-1.20
2022-12-15T21:56:17.427Z,-1.20
2022-12-15T21:59:11.614Z,-1.20
2022-12-15T22:02:00.043Z,-1.20
2022-12-15T22:04:48.983Z,-1.30
2022-12-15T22:07:35.169Z,-1.30
2022-12-15T22:10:21.217Z,-1.30
2022-12-15T22:13:13.337Z,-1.30
2022-12-15T22:15:59.792Z,-1.30
2022-12-15T22:18:51.739Z,-1.40
2022-12-15T22:21:37.724Z,-1.40
2022-12-15T22:24:23.815Z,-1.40
2022-12-15T22:27:20.421Z,-1.40
2022-12-15T22:30:18.219Z,-1.40
2022-12-15T22:33:19.140Z,-1.40
2022-12-15T22:36:06.974Z,-1.50
2022-12-15T22:38:52.937Z,-1.50
2022-12-15T22:41:46.174Z,-1.50
2022-12-15T22:44:37.217Z,-1.60
2022-12-15T22:47:23.617Z,-1.60
2022-12-15T22:50:16.301Z,-1.70
2022-12-15T22:53:02.951Z,-1.70
2022-12-15T22:55:50.931Z,-1.70
2022-12-15T22:58:44.442Z,-1.80
2022-12-15T23:01:30.818Z,-1.80
2022-12-15T23:04:17.160Z,-1.80
2022-12-15T23:07:11.432Z,-1.80
2022-12-15T23:10:20.526Z,-1.90
2022-12-15T23:13:07.387Z,-1.90
2022-12-15T23:16:13.146Z,-2.00
2022-12-15T23:18:59.888Z,-2.00
2022-12-15T23:21:48.702Z,-2.00
2022-12-15T23:24:34.875Z,-2.10
2022-12-15T23:27:20.790Z,-2.10
2022-12-15T23:30:08.323Z,-2.20
2022-12-15T23:32:55.374Z,-2.10
2022-12-15T23:35:43.754Z,-2.20
2022-12-15T23:38:30.874Z,-2.20
2022-12-15T23:41:18.482Z,-2.20
2022-12-15T23:44:05.616Z,-2.30
2022-12-15T23:46:51.679Z,-2.30
2022-12-15T23:49:37.855Z,-2.30
2022-12-15T23:52:24.051Z,-2.40
2022-12-15T23:55:10.214Z,-2.40
2022-12-15T23:57:57.622Z,-2.50
